Terminal Aerodrome Forecast
Issued by NWS Mt. Holly, NJ

Home | Current Version | Previous Version | Text Only | Print | Product List | Glossary On
Versions: 1 2 3 4 5 6 7 8 9 10 11 12 13 14 15 16
000
FTUS41 KPHI 032320
TAFILG
TAF
KILG 032320Z 0400/0424 02004KT P6SM FEW050 BKN250
     FM041300 05009KT P6SM BKN045
     FM041600 09012KT P6SM BKN040=

USA.gov is the U.S. government's official web portal to all federal, state and local government web resources and services.